sensor_id;sensor_type;location;lat;lon;timestamp;pressure;altitude;pressure_sealevel;temperature;humidity
14269;BME280;7218;51.480;7.006;2022-11-15T00:00:25;100064.16;;;11.70;100.00
14269;BME280;7218;51.480;7.006;2022-11-15T00:02:51;100057.25;;;11.67;100.00
14269;BME280;7218;51.480;7.006;2022-11-15T00:05:18;100050.31;;;11.66;100.00
14269;BME280;7218;51.480;7.006;2022-11-15T00:07:47;100052.66;;;11.77;100.00
14269;BME280;7218;51.480;7.006;2022-11-15T00:10:13;100057.88;;;11.77;100.00
14269;BME280;7218;51.480;7.006;2022-11-15T00:12:42;100050.19;;;11.71;100.00
14269;BME280;7218;51.480;7.006;2022-11-15T00:15:08;100043.22;;;11.73;100.00
14269;BME280;7218;51.480;7.006;2022-11-15T00:17:35;100044.78;;;11.78;100.00
14269;BME280;7218;51.480;7.006;2022-11-15T00:20:02;100045.03;;;11.69;100.00
14269;BME280;7218;51.480;7.006;2022-11-15T00:22:31;100055.34;;;11.75;100.00
14269;BME280;7218;51.480;7.006;2022-11-15T00:24:59;100050.78;;;11.82;100.00
14269;BME280;7218;51.480;7.006;2022-11-15T00:27:26;100049.00;;;11.84;100.00
14269;BME280;7218;51.480;7.006;2022-11-15T00:29:53;100048.31;;;11.77;100.00
14269;BME280;7218;51.480;7.006;2022-11-15T00:32:20;100039.69;;;11.72;100.00
14269;BME280;7218;51.480;7.006;2022-11-15T00:34:46;100043.97;;;11.76;100.00
14269;BME280;7218;51.480;7.006;2022-11-15T00:37:13;100046.50;;;11.79;100.00
14269;BME280;7218;51.480;7.006;2022-11-15T00:39:39;100040.41;;;11.80;100.00
14269;BME280;7218;51.480;7.006;2022-11-15T00:42:07;100049.75;;;11.87;100.00
14269;BME280;7218;51.480;7.006;2022-11-15T00:44:34;100040.31;;;11.83;100.00
14269;BME280;7218;51.480;7.006;2022-11-15T00:47:01;100043.50;;;11.93;100.00
14269;BME280;7218;51.480;7.006;2022-11-15T00:49:27;100036.00;;;11.81;100.00
14269;BME280;7218;51.480;7.006;2022-11-15T00:51:53;100032.31;;;11.88;100.00
14269;BME280;7218;51.480;7.006;2022-11-15T00:54:20;100030.31;;;11.97;100.00
14269;BME280;7218;51.480;7.006;2022-11-15T00:56:46;100027.47;;;12.05;100.00
14269;BME280;7218;51.480;7.006;2022-11-15T00:59:14;100029.75;;;12.16;100.00
14269;BME280;7218;51.480;7.006;2022-11-15T01:01:41;100029.09;;;12.09;100.00
14269;BME280;7218;51.480;7.006;2022-11-15T01:04:07;100037.47;;;12.20;100.00
14269;BME280;7218;51.480;7.006;2022-11-15T01:06:34;100039.03;;;12.26;100.00
14269;BME280;7218;51.480;7.006;2022-11-15T01:09:00;100033.88;;;12.24;100.00
14269;BME280;7218;51.480;7.006;2022-11-15T01:11:27;100042.72;;;12.20;100.00
14269;BME280;7218;51.480;7.006;2022-11-15T01:13:54;100035.66;;;12.22;100.00
14269;BME280;7218;51.480;7.006;2022-11-15T01:16:22;100037.06;;;12.34;100.00
14269;BME280;7218;51.480;7.006;2022-11-15T01:18:48;100033.47;;;12.36;100.00
14269;BME280;7218;51.480;7.006;2022-11-15T01:21:17;100036.75;;;12.44;100.00
14269;BME280;7218;51.480;7.006;2022-11-15T01:23:44;100027.69;;;12.55;100.00
14269;BME280;7218;51.480;7.006;2022-11-15T01:26:13;100028.44;;;12.58;100.00
14269;BME280;7218;51.480;7.006;2022-11-15T01:28:41;100026.06;;;12.50;100.00
14269;BME280;7218;51.480;7.006;2022-11-15T01:31:11;100031.25;;;12.52;100.00
14269;BME280;7218;51.480;7.006;2022-11-15T01:33:40;100019.84;;;12.55;100.00
14269;BME280;7218;51.480;7.006;2022-11-15T01:36:08;100009.31;;;12.56;100.00
14269;BME280;7218;51.480;7.006;2022-11-15T01:38:36;100012.41;;;12.69;100.00
14269;BME280;7218;51.480;7.006;2022-11-15T01:41:03;100017.31;;;12.51;100.00
14269;BME280;7218;51.480;7.006;2022-11-15T01:43:32;100012.91;;;12.54;100.00
14269;BME280;7218;51.480;7.006;2022-11-15T01:46:01;100010.84;;;12.63;100.00
14269;BME280;7218;51.480;7.006;2022-11-15T01:48:31;100006.66;;;12.58;100.00
14269;BME280;7218;51.480;7.006;2022-11-15T01:51:01;100013.06;;;12.49;100.00
14269;BME280;7218;51.480;7.006;2022-11-15T01:53:29;100002.44;;;12.54;100.00
14269;BME280;7218;51.480;7.006;2022-11-15T01:55:58;100001.06;;;12.42;100.00
14269;BME280;7218;51.480;7.006;2022-11-15T01:58:25;100000.88;;;12.48;100.00
14269;BME280;7218;51.480;7.006;2022-11-15T02:00:51;100007.41;;;12.61;100.00
14269;BME280;7218;51.480;7.006;2022-11-15T02:03:18;100005.59;;;12.65;100.00
14269;BME280;7218;51.480;7.006;2022-11-15T02:05:46;100001.53;;;12.55;100.00
14269;BME280;7218;51.480;7.006;2022-11-15T02:08:14;100012.09;;;12.51;100.00
14269;BME280;7218;51.480;7.006;2022-11-15T02:10:45;99994.03;;;12.44;100.00
14269;BME280;7218;51.480;7.006;2022-11-15T02:13:12;99991.78;;;12.60;100.00
14269;BME280;7218;51.480;7.006;2022-11-15T02:15:44;99992.69;;;12.59;100.00
14269;BME280;7218;51.480;7.006;2022-11-15T02:18:17;99990.69;;;12.67;100.00
14269;BME280;7218;51.480;7.006;2022-11-15T02:20:58;99990.13;;;12.57;100.00
14269;BME280;7218;51.480;7.006;2022-11-15T02:24:00;99979.63;;;12.59;100.00
14269;BME280;7218;51.480;7.006;2022-11-15T02:26:56;99980.94;;;12.70;100.00
14269;BME280;7218;51.480;7.006;2022-11-15T02:29:36;99970.66;;;12.66;100.00
14269;BME280;7218;51.480;7.006;2022-11-15T02:32:12;99981.97;;;12.66;100.00
14269;BME280;7218;51.480;7.006;2022-11-15T02:34:46;99978.56;;;12.64;100.00
14269;BME280;7218;51.480;7.006;2022-11-15T02:37:21;99979.47;;;12.63;100.00
14269;BME280;7218;51.480;7.006;2022-11-15T02:40:00;99982.66;;;12.71;100.00
14269;BME280;7218;51.480;7.006;2022-11-15T02:42:35;99979.47;;;12.63;100.00
14269;BME280;7218;51.480;7.006;2022-11-15T02:45:23;99979.91;;;12.76;100.00
14269;BME280;7218;51.480;7.006;2022-11-15T02:47:55;99983.38;;;12.76;100.00
14269;BME280;7218;51.480;7.006;2022-11-15T02:50:25;99980.38;;;12.62;100.00
14269;BME280;7218;51.480;7.006;2022-11-15T02:52:53;99974.03;;;12.69;100.00
14269;BME280;7218;51.480;7.006;2022-11-15T02:55:28;99981.06;;;12.67;100.00
14269;BME280;7218;51.480;7.006;2022-11-15T03:00:53;99972.72;;;12.82;100.00
14269;BME280;7218;51.480;7.006;2022-11-15T03:03:35;99966.66;;;12.80;100.00
14269;BME280;7218;51.480;7.006;2022-11-15T03:06:15;99973.09;;;12.70;100.00
14269;BME280;7218;51.480;7.006;2022-11-15T03:08:53;99967.16;;;12.91;100.00
14269;BME280;7218;51.480;7.006;2022-11-15T03:11:25;99963.84;;;12.86;100.00
14269;BME280;7218;51.480;7.006;2022-11-15T03:13:57;99970.75;;;12.89;100.00
14269;BME280;7218;51.480;7.006;2022-11-15T03:16:29;99961.00;;;12.94;100.00
14269;BME280;7218;51.480;7.006;2022-11-15T03:19:02;99973.47;;;12.86;100.00
14269;BME280;7218;51.480;7.006;2022-11-15T03:21:32;99960.91;;;12.95;100.00
14269;BME280;7218;51.480;7.006;2022-11-15T03:24:03;99967.97;;;12.93;100.00
14269;BME280;7218;51.480;7.006;2022-11-15T03:26:33;99973.41;;;12.87;100.00
14269;BME280;7218;51.480;7.006;2022-11-15T03:29:04;99972.19;;;12.98;100.00
14269;BME280;7218;51.480;7.006;2022-11-15T03:31:36;99964.34;;;12.98;100.00
14269;BME280;7218;51.480;7.006;2022-11-15T03:34:20;99962.47;;;13.01;100.00
14269;BME280;7218;51.480;7.006;2022-11-15T03:36:49;99968.06;;;12.90;100.00
14269;BME280;7218;51.480;7.006;2022-11-15T03:39:17;99963.31;;;13.02;100.00
14269;BME280;7218;51.480;7.006;2022-11-15T03:41:48;99969.91;;;12.88;100.00
14269;BME280;7218;51.480;7.006;2022-11-15T03:44:25;99962.44;;;13.03;100.00
14269;BME280;7218;51.480;7.006;2022-11-15T03:47:01;99958.66;;;13.11;100.00
14269;BME280;7218;51.480;7.006;2022-11-15T03:49:36;99960.34;;;13.14;100.00
14269;BME280;7218;51.480;7.006;2022-11-15T03:52:09;99955.38;;;13.05;100.00
14269;BME280;7218;51.480;7.006;2022-11-15T03:54:37;99966.50;;;13.11;100.00
14269;BME280;7218;51.480;7.006;2022-11-15T03:57:13;99953.59;;;13.05;100.00
14269;BME280;7218;51.480;7.006;2022-11-15T03:59:40;99950.94;;;13.07;100.00
14269;BME280;7218;51.480;7.006;2022-11-15T04:02:06;99942.19;;;13.08;100.00
14269;BME280;7218;51.480;7.006;2022-11-15T04:04:35;99939.53;;;13.09;100.00
14269;BME280;7218;51.480;7.006;2022-11-15T04:07:01;99941.38;;;13.06;100.00
14269;BME280;7218;51.480;7.006;2022-11-15T04:09:28;99953.47;;;13.10;100.00
14269;BME280;7218;51.480;7.006;2022-11-15T04:11:55;99938.66;;;13.09;100.00
14269;BME280;7218;51.480;7.006;2022-11-15T04:14:22;99935.41;;;13.02;100.00
14269;BME280;7218;51.480;7.006;2022-11-15T04:16:49;99938.91;;;13.01;100.00
14269;BME280;7218;51.480;7.006;2022-11-15T04:19:15;99937.97;;;13.04;100.00
14269;BME280;7218;51.480;7.006;2022-11-15T04:22:02;99933.34;;;13.10;100.00
14269;BME280;7218;51.480;7.006;2022-11-15T04:24:46;99931.53;;;13.14;100.00
14269;BME280;7218;51.480;7.006;2022-11-15T04:27:13;99939.41;;;13.14;100.00
14269;BME280;7218;51.480;7.006;2022-11-15T04:29:43;99937.56;;;13.16;100.00
14269;BME280;7218;51.480;7.006;2022-11-15T04:32:10;99950.03;;;13.08;100.00
14269;BME280;7218;51.480;7.006;2022-11-15T04:34:39;99939.44;;;13.12;100.00
14269;BME280;7218;51.480;7.006;2022-11-15T04:37:08;99936.56;;;13.20;100.00
14269;BME280;7218;51.480;7.006;2022-11-15T04:39:37;99924.94;;;13.27;100.00
14269;BME280;7218;51.480;7.006;2022-11-15T04:42:04;99939.28;;;13.17;100.00
14269;BME280;7218;51.480;7.006;2022-11-15T04:44:31;99936.78;;;13.14;100.00
14269;BME280;7218;51.480;7.006;2022-11-15T04:47:00;99946.88;;;13.24;100.00
14269;BME280;7218;51.480;7.006;2022-11-15T04:49:28;99929.53;;;13.20;100.00
14269;BME280;7218;51.480;7.006;2022-11-15T04:51:57;99934.50;;;13.28;100.00
14269;BME280;7218;51.480;7.006;2022-11-15T04:54:26;99931.00;;;13.29;100.00
14269;BME280;7218;51.480;7.006;2022-11-15T04:56:58;99935.75;;;13.18;100.00
14269;BME280;7218;51.480;7.006;2022-11-15T04:59:25;99926.09;;;13.20;100.00
14269;BME280;7218;51.480;7.006;2022-11-15T05:01:53;99935.75;;;13.18;100.00
14269;BME280;7218;51.480;7.006;2022-11-15T05:04:21;99932.97;;;13.22;100.00
14269;BME280;7218;51.480;7.006;2022-11-15T05:06:48;99935.16;;;13.10;100.00
14269;BME280;7218;51.480;7.006;2022-11-15T05:09:16;99942.69;;;13.19;100.00
14269;BME280;7218;51.480;7.006;2022-11-15T05:11:45;99938.53;;;13.13;100.00
14269;BME280;7218;51.480;7.006;2022-11-15T05:14:13;99932.28;;;13.17;100.00
14269;BME280;7218;51.480;7.006;2022-11-15T05:16:43;99940.88;;;13.21;100.00
14269;BME280;7218;51.480;7.006;2022-11-15T05:19:11;99936.81;;;13.12;100.00
14269;BME280;7218;51.480;7.006;2022-11-15T05:21:38;99934.53;;;13.02;100.00
14269;BME280;7218;51.480;7.006;2022-11-15T05:24:06;99942.22;;;13.06;100.00
14269;BME280;7218;51.480;7.006;2022-11-15T05:26:36;99939.91;;;12.99;100.00
14269;BME280;7218;51.480;7.006;2022-11-15T05:29:09;99932.78;;;13.02;100.00
14269;BME280;7218;51.480;7.006;2022-11-15T05:31:39;99934.66;;;12.99;100.00
14269;BME280;7218;51.480;7.006;2022-11-15T05:34:06;99943.94;;;12.82;100.00
14269;BME280;7218;51.480;7.006;2022-11-15T05:36:36;99940.13;;;12.91;100.00
14269;BME280;7218;51.480;7.006;2022-11-15T05:39:05;99931.00;;;12.78;100.00
14269;BME280;7218;51.480;7.006;2022-11-15T05:41:35;99935.84;;;12.90;100.00
14269;BME280;7218;51.480;7.006;2022-11-15T05:44:07;99937.78;;;12.83;100.00
14269;BME280;7218;51.480;7.006;2022-11-15T05:46:36;99925.72;;;12.79;100.00
14269;BME280;7218;51.480;7.006;2022-11-15T05:49:06;99931.03;;;12.76;100.00
14269;BME280;7218;51.480;7.006;2022-11-15T05:51:35;99918.09;;;12.73;100.00
14269;BME280;7218;51.480;7.006;2022-11-15T05:54:02;99922.34;;;12.76;100.00
14269;BME280;7218;51.480;7.006;2022-11-15T05:56:29;99923.03;;;12.81;100.00
14269;BME280;7218;51.480;7.006;2022-11-15T05:58:57;99918.16;;;12.70;100.00
14269;BME280;7218;51.480;7.006;2022-11-15T06:01:26;99919.03;;;12.71;100.00
14269;BME280;7218;51.480;7.006;2022-11-15T06:03:54;99924.81;;;12.80;100.00
14269;BME280;7218;51.480;7.006;2022-11-15T06:06:21;99922.63;;;12.68;100.00
14269;BME280;7218;51.480;7.006;2022-11-15T06:08:48;99923.31;;;12.73;100.00
14269;BME280;7218;51.480;7.006;2022-11-15T06:11:16;99922.78;;;12.64;100.00
14269;BME280;7218;51.480;7.006;2022-11-15T06:13:44;99925.63;;;12.82;100.00
14269;BME280;7218;51.480;7.006;2022-11-15T06:16:11;99932.06;;;12.72;100.00
14269;BME280;7218;51.480;7.006;2022-11-15T06:18:42;99930.09;;;12.79;100.00
14269;BME280;7218;51.480;7.006;2022-11-15T06:21:09;99937.09;;;12.78;100.00
14269;BME280;7218;51.480;7.006;2022-11-15T06:23:40;99942.84;;;12.63;100.00
14269;BME280;7218;51.480;7.006;2022-11-15T06:26:07;99942.66;;;12.69;100.00
14269;BME280;7218;51.480;7.006;2022-11-15T06:28:35;99947.97;;;12.66;100.00
14269;BME280;7218;51.480;7.006;2022-11-15T06:31:10;99941.09;;;12.64;100.00
14269;BME280;7218;51.480;7.006;2022-11-15T06:33:38;99951.25;;;12.73;100.00
14269;BME280;7218;51.480;7.006;2022-11-15T06:36:10;99957.28;;;12.75;100.00
14269;BME280;7218;51.480;7.006;2022-11-15T06:38:38;99951.28;;;12.71;100.00
14269;BME280;7218;51.480;7.006;2022-11-15T06:41:08;99949.16;;;12.56;100.00
14269;BME280;7218;51.480;7.006;2022-11-15T06:43:37;99953.84;;;12.73;100.00
14269;BME280;7218;51.480;7.006;2022-11-15T06:46:05;99954.41;;;12.82;100.00
14269;BME280;7218;51.480;7.006;2022-11-15T06:48:35;99953.97;;;12.70;100.00
14269;BME280;7218;51.480;7.006;2022-11-15T06:51:05;99964.28;;;12.74;100.00
14269;BME280;7218;51.480;7.006;2022-11-15T06:53:34;99963.06;;;12.84;100.00
14269;BME280;7218;51.480;7.006;2022-11-15T06:56:05;99967.69;;;12.76;100.00
14269;BME280;7218;51.480;7.006;2022-11-15T06:58:32;99961.06;;;12.91;100.00
14269;BME280;7218;51.480;7.006;2022-11-15T07:01:00;99958.22;;;12.99;100.00
14269;BME280;7218;51.480;7.006;2022-11-15T07:03:27;99965.47;;;12.64;100.00
14269;BME280;7218;51.480;7.006;2022-11-15T07:05:54;99958.63;;;12.86;100.00
14269;BME280;7218;51.480;7.006;2022-11-15T07:08:22;99963.16;;;12.81;100.00
14269;BME280;7218;51.480;7.006;2022-11-15T07:10:50;99972.56;;;12.87;100.00
14269;BME280;7218;51.480;7.006;2022-11-15T07:13:16;99972.66;;;12.84;100.00
14269;BME280;7218;51.480;7.006;2022-11-15T07:15:43;99981.13;;;12.92;100.00
14269;BME280;7218;51.480;7.006;2022-11-15T07:18:09;99987.81;;;12.74;100.00
14269;BME280;7218;51.480;7.006;2022-11-15T07:20:36;99984.38;;;12.72;100.00
14269;BME280;7218;51.480;7.006;2022-11-15T07:23:04;99986.16;;;12.98;100.00
14269;BME280;7218;51.480;7.006;2022-11-15T07:25:33;99997.72;;;12.91;100.00
14269;BME280;7218;51.480;7.006;2022-11-15T07:28:01;99992.41;;;12.94;100.00
14269;BME280;7218;51.480;7.006;2022-11-15T07:30:28;99997.34;;;13.02;100.00
14269;BME280;7218;51.480;7.006;2022-11-15T07:32:54;99997.41;;;13.00;100.00
14269;BME280;7218;51.480;7.006;2022-11-15T07:35:21;99999.94;;;13.03;100.00
14269;BME280;7218;51.480;7.006;2022-11-15T07:37:55;100002.09;;;12.90;100.00
14269;BME280;7218;51.480;7.006;2022-11-15T07:40:22;100000.16;;;12.95;100.00
14269;BME280;7218;51.480;7.006;2022-11-15T07:42:49;100003.88;;;12.90;100.00
14269;BME280;7218;51.480;7.006;2022-11-15T07:45:20;99998.22;;;13.02;100.00
14269;BME280;7218;51.480;7.006;2022-11-15T07:47:47;99994.94;;;12.95;100.00
14269;BME280;7218;51.480;7.006;2022-11-15T07:50:14;100002.41;;;12.81;100.00
14269;BME280;7218;51.480;7.006;2022-11-15T07:52:40;100009.13;;;12.90;100.00
14269;BME280;7218;51.480;7.006;2022-11-15T07:55:07;100011.66;;;12.91;100.00
14269;BME280;7218;51.480;7.006;2022-11-15T07:57:34;100005.47;;;12.94;100.00
14269;BME280;7218;51.480;7.006;2022-11-15T08:00:01;100010.91;;;12.88;100.00
14269;BME280;7218;51.480;7.006;2022-11-15T08:02:29;100016.69;;;12.98;100.00
14269;BME280;7218;51.480;7.006;2022-11-15T08:04:55;100018.59;;;12.92;100.00
14269;BME280;7218;51.480;7.006;2022-11-15T08:07:22;100020.88;;;13.03;100.00
14269;BME280;7218;51.480;7.006;2022-11-15T08:09:49;100013.09;;;13.00;100.00
14269;BME280;7218;51.480;7.006;2022-11-15T08:12:16;100027.28;;;12.94;100.00
14269;BME280;7218;51.480;7.006;2022-11-15T08:14:42;100012.91;;;13.06;100.00
14269;BME280;7218;51.480;7.006;2022-11-15T08:17:09;100016.97;;;13.16;100.00
14269;BME280;7218;51.480;7.006;2022-11-15T08:19:37;100012.41;;;13.21;100.00
14269;BME280;7218;51.480;7.006;2022-11-15T08:22:03;100014.66;;;13.32;100.00
14269;BME280;7218;51.480;7.006;2022-11-15T08:24:30;100018.47;;;13.23;100.00
14269;BME280;7218;51.480;7.006;2022-11-15T08:26:56;100026.22;;;13.26;100.00
14269;BME280;7218;51.480;7.006;2022-11-15T08:29:23;100019.69;;;13.13;100.00
14269;BME280;7218;51.480;7.006;2022-11-15T08:31:49;100018.47;;;13.23;100.00
14269;BME280;7218;51.480;7.006;2022-11-15T08:34:16;100017.13;;;13.36;100.00
14269;BME280;7218;51.480;7.006;2022-11-15T08:36:44;100018.56;;;13.45;100.00
14269;BME280;7218;51.480;7.006;2022-11-15T08:39:11;100021.03;;;13.50;100.00
14269;BME280;7218;51.480;7.006;2022-11-15T08:41:38;100022.53;;;13.57;100.00
14269;BME280;7218;51.480;7.006;2022-11-15T08:44:04;100010.25;;;13.82;100.00
14269;BME280;7218;51.480;7.006;2022-11-15T08:46:31;100010.22;;;13.59;100.00
14269;BME280;7218;51.480;7.006;2022-11-15T08:48:57;100010.75;;;13.68;100.00
14269;BME280;7218;51.480;7.006;2022-11-15T08:51:24;100014.50;;;13.36;100.00
14269;BME280;7218;51.480;7.006;2022-11-15T08:53:51;99995.13;;;13.65;100.00
14269;BME280;7218;51.480;7.006;2022-11-15T08:56:18;99994.56;;;13.80;100.00
14269;BME280;7218;51.480;7.006;2022-11-15T08:58:44;99994.69;;;13.77;100.00
14269;BME280;7218;51.480;7.006;2022-11-15T09:01:16;100002.75;;;13.48;100.00
14269;BME280;7218;51.480;7.006;2022-11-15T09:03:43;99992.19;;;13.98;100.00
14269;BME280;7218;51.480;7.006;2022-11-15T09:06:10;99991.13;;;13.55;100.00
14269;BME280;7218;51.480;7.006;2022-11-15T09:08:36;99992.25;;;13.73;99.66
14269;BME280;7218;51.480;7.006;2022-11-15T09:11:05;100002.25;;;13.62;99.17
14269;BME280;7218;51.480;7.006;2022-11-15T09:13:32;99995.50;;;13.79;98.53
14269;BME280;7218;51.480;7.006;2022-11-15T09:15:59;99983.91;;;14.08;97.03
14269;BME280;7218;51.480;7.006;2022-11-15T09:18:26;99987.91;;;13.95;97.41
14269;BME280;7218;51.480;7.006;2022-11-15T09:20:55;99981.25;;;13.87;95.96
14269;BME280;7218;51.480;7.006;2022-11-15T09:23:23;99981.72;;;13.74;95.88
14269;BME280;7218;51.480;7.006;2022-11-15T09:25:50;99985.22;;;13.97;93.86
14269;BME280;7218;51.480;7.006;2022-11-15T09:28:18;99982.81;;;14.14;93.57
14269;BME280;7218;51.480;7.006;2022-11-15T09:30:45;99971.34;;;14.16;92.20
14269;BME280;7218;51.480;7.006;2022-11-15T09:33:12;99975.84;;;15.20;87.86
14269;BME280;7218;51.480;7.006;2022-11-15T09:35:38;99992.00;;;15.11;86.19
14269;BME280;7218;51.480;7.006;2022-11-15T09:38:06;99979.44;;;15.38;84.43
14269;BME280;7218;51.480;7.006;2022-11-15T09:40:36;99961.66;;;15.83;82.82
14269;BME280;7218;51.480;7.006;2022-11-15T09:43:20;99973.09;;;16.01;79.91
14269;BME280;7218;51.480;7.006;2022-11-15T09:45:58;99982.47;;;16.07;78.61
14269;BME280;7218;51.480;7.006;2022-11-15T09:48:48;99973.31;;;15.97;77.28
14269;BME280;7218;51.480;7.006;2022-11-15T09:51:23;99970.09;;;15.90;76.77
14269;BME280;7218;51.480;7.006;2022-11-15T09:53:56;99976.22;;;15.90;77.45
14269;BME280;7218;51.480;7.006;2022-11-15T09:56:26;99971.44;;;15.41;80.06
14269;BME280;7218;51.480;7.006;2022-11-15T09:59:01;99967.44;;;15.32;80.84
14269;BME280;7218;51.480;7.006;2022-11-15T10:01:38;99959.53;;;16.46;76.96
14269;BME280;7218;51.480;7.006;2022-11-15T10:04:08;99940.31;;;16.63;74.75
14269;BME280;7218;51.480;7.006;2022-11-15T10:06:38;99944.22;;;16.73;77.50
14269;BME280;7218;51.480;7.006;2022-11-15T10:09:13;99933.69;;;16.73;73.81
14269;BME280;7218;51.480;7.006;2022-11-15T10:11:41;99944.47;;;17.18;71.26
14269;BME280;7218;51.480;7.006;2022-11-15T10:14:11;99937.78;;;16.96;72.19
14269;BME280;7218;51.480;7.006;2022-11-15T10:19:46;99927.06;;;16.99;69.29
14269;BME280;7218;51.480;7.006;2022-11-15T10:22:24;99912.03;;;17.18;68.60
14269;BME280;7218;51.480;7.006;2022-11-15T10:25:04;99912.94;;;17.67;64.69
14269;BME280;7218;51.480;7.006;2022-11-15T10:27:37;99906.25;;;17.93;64.13
14269;BME280;7218;51.480;7.006;2022-11-15T10:30:11;99910.00;;;18.66;60.56
14269;BME280;7218;51.480;7.006;2022-11-15T10:32:39;99907.72;;;18.44;60.15
14269;BME280;7218;51.480;7.006;2022-11-15T10:35:17;99906.13;;;17.94;63.85
14269;BME280;7218;51.480;7.006;2022-11-15T10:37:44;99900.50;;;19.35;56.94
14269;BME280;7218;51.480;7.006;2022-11-15T10:40:15;99912.59;;;19.54;55.99
14269;BME280;7218;51.480;7.006;2022-11-15T10:42:43;99896.53;;;19.85;54.55
14269;BME280;7218;51.480;7.006;2022-11-15T10:45:23;99896.69;;;18.97;56.26
14269;BME280;7218;51.480;7.006;2022-11-15T10:47:50;99888.75;;;18.97;56.20
14269;BME280;7218;51.480;7.006;2022-11-15T10:50:28;99879.25;;;19.37;54.83
14269;BME280;7218;51.480;7.006;2022-11-15T10:52:55;99887.97;;;19.67;52.33
14269;BME280;7218;51.480;7.006;2022-11-15T10:55:25;99887.81;;;20.24;48.58
14269;BME280;7218;51.480;7.006;2022-11-15T10:57:54;99883.97;;;19.74;49.47
14269;BME280;7218;51.480;7.006;2022-11-15T11:00:33;99882.00;;;20.46;48.12
14269;BME280;7218;51.480;7.006;2022-11-15T11:03:02;99874.28;;;20.55;45.39
14269;BME280;7218;51.480;7.006;2022-11-15T11:05:31;99876.03;;;20.42;45.62
14269;BME280;7218;51.480;7.006;2022-11-15T11:08:00;99877.69;;;19.90;47.33
14269;BME280;7218;51.480;7.006;2022-11-15T11:10:28;99876.00;;;20.69;45.36
14269;BME280;7218;51.480;7.006;2022-11-15T11:12:54;99876.84;;;20.70;45.64
14269;BME280;7218;51.480;7.006;2022-11-15T11:15:24;99866.78;;;20.62;45.12
14269;BME280;7218;51.480;7.006;2022-11-15T11:18:03;99863.78;;;20.27;46.07
14269;BME280;7218;51.480;7.006;2022-11-15T11:20:38;99855.81;;;20.41;44.90
14269;BME280;7218;51.480;7.006;2022-11-15T11:23:32;99849.22;;;21.24;43.00
14269;BME280;7218;51.480;7.006;2022-11-15T11:26:15;99846.63;;;21.61;41.70
14269;BME280;7218;51.480;7.006;2022-11-15T11:28:50;99839.53;;;21.85;41.19
14269;BME280;7218;51.480;7.006;2022-11-15T11:31:25;99830.84;;;23.34;38.77
14269;BME280;7218;51.480;7.006;2022-11-15T11:34:04;99836.38;;;23.86;36.93
14269;BME280;7218;51.480;7.006;2022-11-15T11:36:39;99852.97;;;23.01;36.15
14269;BME280;7218;51.480;7.006;2022-11-15T11:39:18;99840.69;;;22.41;36.27
14269;BME280;7218;51.480;7.006;2022-11-15T11:41:55;99849.06;;;21.87;37.24
14269;BME280;7218;51.480;7.006;2022-11-15T11:44:44;99841.31;;;21.97;37.22
14269;BME280;7218;51.480;7.006;2022-11-15T11:47:18;99846.97;;;20.93;39.45
14269;BME280;7218;51.480;7.006;2022-11-15T11:49:51;99834.13;;;20.61;40.79
14269;BME280;7218;51.480;7.006;2022-11-15T11:52:22;99842.78;;;20.51;40.31
14269;BME280;7218;51.480;7.006;2022-11-15T11:54:58;99827.47;;;21.19;39.73
14269;BME280;7218;51.480;7.006;2022-11-15T11:57:33;99824.38;;;20.75;40.47
14269;BME280;7218;51.480;7.006;2022-11-15T12:00:04;99829.75;;;21.98;38.28
14269;BME280;7218;51.480;7.006;2022-11-15T12:02:34;99832.53;;;22.20;37.69
14269;BME280;7218;51.480;7.006;2022-11-15T12:05:10;99825.03;;;21.41;38.38
14269;BME280;7218;51.480;7.006;2022-11-15T12:07:40;99821.22;;;21.20;37.32
14269;BME280;7218;51.480;7.006;2022-11-15T12:10:17;99825.91;;;21.17;38.37
14269;BME280;7218;51.480;7.006;2022-11-15T12:12:51;99826.22;;;20.87;38.83
14269;BME280;7218;51.480;7.006;2022-11-15T12:15:22;99838.44;;;20.23;39.57
14269;BME280;7218;51.480;7.006;2022-11-15T12:17:50;99840.09;;;19.85;39.99
14269;BME280;7218;51.480;7.006;2022-11-15T12:20:21;99829.34;;;18.60;42.63
14269;BME280;7218;51.480;7.006;2022-11-15T12:22:53;99827.22;;;19.23;41.40
14269;BME280;7218;51.480;7.006;2022-11-15T12:25:25;99827.88;;;19.13;41.58
14269;BME280;7218;51.480;7.006;2022-11-15T12:27:56;99828.16;;;19.65;40.67
14269;BME280;7218;51.480;7.006;2022-11-15T12:30:38;99811.84;;;20.12;39.58
14269;BME280;7218;51.480;7.006;2022-11-15T12:33:30;99806.59;;;21.02;37.78
14269;BME280;7218;51.480;7.006;2022-11-15T12:36:00;99798.31;;;20.56;38.71
14269;BME280;7218;51.480;7.006;2022-11-15T12:38:50;99792.34;;;21.41;37.45
14269;BME280;7218;51.480;7.006;2022-11-15T12:41:18;99780.06;;;20.51;38.16
14269;BME280;7218;51.480;7.006;2022-11-15T12:43:46;99775.00;;;20.86;37.31
14269;BME280;7218;51.480;7.006;2022-11-15T12:46:21;99775.09;;;20.59;37.19
14269;BME280;7218;51.480;7.006;2022-11-15T12:48:53;99769.75;;;20.97;36.50
14269;BME280;7218;51.480;7.006;2022-11-15T12:54:54;99755.88;;;21.07;36.45
14269;BME280;7218;51.480;7.006;2022-11-15T12:57:48;99751.56;;;21.42;36.16
14269;BME280;7218;51.480;7.006;2022-11-15T13:00:44;99743.75;;;21.88;35.23
14269;BME280;7218;51.480;7.006;2022-11-15T13:03:26;99743.66;;;21.66;35.63
14269;BME280;7218;51.480;7.006;2022-11-15T13:09:03;99731.22;;;22.82;33.45
14269;BME280;7218;51.480;7.006;2022-11-15T13:11:44;99717.56;;;23.09;33.32
14269;BME280;7218;51.480;7.006;2022-11-15T13:14:41;99709.63;;;23.52;33.07
14269;BME280;7218;51.480;7.006;2022-11-15T13:17:29;99712.84;;;23.67;32.88
14269;BME280;7218;51.480;7.006;2022-11-15T13:20:21;99719.81;;;23.90;32.43
14269;BME280;7218;51.480;7.006;2022-11-15T13:25:25;99703.78;;;22.93;33.45
14269;BME280;7218;51.480;7.006;2022-11-15T13:27:53;99708.50;;;23.00;33.88
14269;BME280;7218;51.480;7.006;2022-11-15T13:30:24;99703.56;;;22.96;33.94
14269;BME280;7218;51.480;7.006;2022-11-15T13:32:51;99692.03;;;21.94;35.37